createdAt,value
2018-03-01T00:00:08.300Z,-4.66
2018-03-01T00:01:08.314Z,-4.62
2018-03-01T00:02:08.347Z,-4.68
2018-03-01T00:03:08.384Z,-4.66
2018-03-01T00:04:08.426Z,-4.62
2018-03-01T00:05:08.473Z,-4.65
2018-03-01T00:06:08.491Z,-4.61
2018-03-01T00:07:08.526Z,-4.57
2018-03-01T00:08:08.559Z,-4.58
2018-03-01T00:09:08.597Z,-4.65
2018-03-01T00:10:08.646Z,-4.58
2018-03-01T00:11:08.668Z,-4.64
2018-03-01T00:12:08.703Z,-4.68
2018-03-01T00:13:08.741Z,-4.65
2018-03-01T00:14:08.774Z,-4.57
2018-03-01T00:15:08.825Z,-4.65
2018-03-01T00:16:09.244Z,-4.55
2018-03-01T00:17:08.877Z,-4.57
2018-03-01T00:18:08.912Z,-4.57
2018-03-01T00:19:08.950Z,-4.57
2018-03-01T00:20:08.986Z,-4.55
2018-03-01T00:21:09.034Z,-4.59
2018-03-01T00:22:09.054Z,-4.66
2018-03-01T00:23:09.088Z,-4.77
2018-03-01T00:24:09.126Z,-4.76
2018-03-01T00:25:09.159Z,-4.71
2018-03-01T00:26:09.209Z,-4.75
2018-03-01T00:27:09.229Z,-4.82
2018-03-01T00:28:09.268Z,-4.80
2018-03-01T00:29:09.302Z,-4.82
2018-03-01T00:30:09.335Z,-4.82
2018-03-01T00:31:09.389Z,-4.77
2018-03-01T00:32:09.407Z,-4.76
2018-03-01T00:33:09.441Z,-4.77
2018-03-01T00:34:09.475Z,-4.77
2018-03-01T00:35:09.512Z,-4.82
2018-03-01T00:36:09.561Z,-4.71
2018-03-01T00:37:09.598Z,-4.79
2018-03-01T00:38:09.618Z,-4.79
2018-03-01T00:39:09.652Z,-4.76
2018-03-01T00:40:09.686Z,-4.77
2018-03-01T00:41:09.726Z,-4.77
2018-03-01T00:42:09.932Z,-4.83
2018-03-01T00:43:09.791Z,-4.77
2018-03-01T00:44:09.826Z,-4.76
2018-03-01T00:45:09.862Z,-4.83
2018-03-01T00:46:09.897Z,-4.86
2018-03-01T00:47:09.967Z,-4.86
2018-03-01T00:48:09.970Z,-4.83
2018-03-01T00:49:10.003Z,-4.83
2018-03-01T00:50:10.037Z,-4.83
2018-03-01T00:51:10.073Z,-4.82
2018-03-01T00:52:10.127Z,-4.86
2018-03-01T00:53:10.159Z,-4.89
2018-03-01T00:54:10.185Z,-4.89
2018-03-01T00:55:10.211Z,-4.98
2018-03-01T00:56:10.248Z,-4.89
2018-03-01T00:57:10.281Z,-4.91
2018-03-01T00:58:10.333Z,-4.86
2018-03-01T00:59:10.372Z,-4.91
2018-03-01T01:00:10.387Z,-4.97
2018-03-01T01:01:10.423Z,-4.93
2018-03-01T01:02:10.456Z,-4.91
2018-03-01T01:03:10.492Z,-4.93
2018-03-01T01:04:10.542Z,-4.85
2018-03-01T01:05:10.564Z,-4.82
2018-03-01T01:06:10.598Z,-4.91
2018-03-01T01:07:10.633Z,-5.00
2018-03-01T01:08:10.670Z,-4.97
2018-03-01T01:09:10.722Z,-4.93
2018-03-01T01:10:10.754Z,-4.94
2018-03-01T01:11:10.773Z,-4.95
2018-03-01T01:12:10.808Z,-5.04
2018-03-01T01:13:10.843Z,-4.97
2018-03-01T01:14:10.884Z,-4.95
2018-03-01T01:15:10.928Z,-4.95
2018-03-01T01:16:10.947Z,-4.98
2018-03-01T01:17:10.982Z,-4.94
2018-03-01T01:18:11.018Z,-5.08
2018-03-01T01:19:11.053Z,-5.00
2018-03-01T01:20:11.106Z,-5.00
2018-03-01T01:21:11.136Z,-5.00
2018-03-01T01:22:11.156Z,-5.11
2018-03-01T01:23:11.193Z,-4.97
2018-03-01T01:24:11.228Z,-4.95
2018-03-01T01:25:11.281Z,-4.95
2018-03-01T01:26:11.315Z,-5.01
2018-03-01T01:27:11.332Z,-4.85
2018-03-01T01:28:11.375Z,-4.83
2018-03-01T01:29:11.402Z,-4.86
2018-03-01T01:30:11.438Z,-4.86
2018-03-01T01:31:11.498Z,-4.83
2018-03-01T01:32:11.513Z,-4.85
2018-03-01T01:33:11.543Z,-4.83
2018-03-01T01:34:11.579Z,-4.83
2018-03-01T01:35:11.642Z,-4.75
2018-03-01T01:36:11.651Z,-4.83
2018-03-01T01:37:11.699Z,-4.75
2018-03-01T01:38:11.718Z,-4.87
2018-03-01T01:39:11.756Z,-4.77
2018-03-01T01:40:11.807Z,-4.89
2018-03-01T01:41:11.824Z,-4.83
2018-03-01T01:42:11.864Z,-4.86
2018-03-01T01:43:11.899Z,-4.82
2018-03-01T01:44:11.930Z,-4.89
2018-03-01T01:45:11.988Z,-4.91
2018-03-01T01:46:12.013Z,-4.86
2018-03-01T01:47:12.036Z,-4.89
2018-03-01T01:48:12.074Z,-4.98
2018-03-01T01:49:12.112Z,-4.94
2018-03-01T01:50:12.159Z,-4.87
2018-03-01T01:51:12.178Z,-5.00
2018-03-01T01:52:12.213Z,-5.03
2018-03-01T01:53:12.301Z,-4.93
2018-03-01T01:54:12.287Z,-5.00
2018-03-01T01:55:12.321Z,-4.98
2018-03-01T01:56:12.365Z,-5.08
2018-03-01T01:57:12.390Z,-4.95
2018-03-01T01:58:12.441Z,-4.95
2018-03-01T01:59:12.463Z,-5.07
2018-03-01T02:00:12.496Z,-5.03
2018-03-01T02:01:12.531Z,-5.01
2018-03-01T02:02:12.569Z,-5.00
2018-03-01T02:03:12.617Z,-5.08
2018-03-01T02:04:12.642Z,-5.04
2018-03-01T02:05:12.672Z,-4.97
2018-03-01T02:06:12.708Z,-5.00
2018-03-01T02:07:12.761Z,-5.11
2018-03-01T02:08:12.780Z,-4.98
2018-03-01T02:09:12.818Z,-5.04
2018-03-01T02:10:12.851Z,-5.05
2018-03-01T02:11:12.888Z,-5.00
2018-03-01T02:12:12.939Z,-5.11
2018-03-01T02:13:12.956Z,-5.04
2018-03-01T02:14:13.008Z,-5.08
2018-03-01T02:15:13.027Z,-5.07
2018-03-01T02:16:13.062Z,-5.11
2018-03-01T02:17:13.098Z,-4.95
2018-03-01T02:18:13.132Z,-5.03
2018-03-01T02:19:13.188Z,-5.07
2018-03-01T02:20:13.205Z,-5.14
2018-03-01T02:21:13.240Z,-5.22
2018-03-01T02:22:13.278Z,-5.07
2018-03-01T02:23:13.313Z,-5.17
2018-03-01T02:24:13.367Z,-5.14
2018-03-01T02:25:13.718Z,-5.14
2018-03-01T02:26:13.425Z,-5.22
2018-03-01T02:27:13.450Z,-5.20
2018-03-01T02:28:13.490Z,-5.19
2018-03-01T02:29:13.529Z,-5.22
2018-03-01T02:30:13.559Z,-5.26
2018-03-01T02:31:13.618Z,-5.14
2018-03-01T02:32:13.627Z,-5.08
2018-03-01T02:33:13.668Z,-5.14
2018-03-01T02:34:13.700Z,-5.04
2018-03-01T02:35:13.734Z,-5.07
2018-03-01T02:36:13.788Z,-5.04
2018-03-01T02:37:13.806Z,-5.07
2018-03-01T02:38:13.839Z,-5.04
2018-03-01T02:39:13.876Z,-5.01
2018-03-01T02:40:13.930Z,-5.11
2018-03-01T02:41:13.947Z,-5.14
2018-03-01T02:42:13.983Z,-5.05
2018-03-01T02:43:14.017Z,-5.03
2018-03-01T02:44:14.052Z,-5.14
2018-03-01T02:45:14.103Z,-5.14
2018-03-01T02:46:14.137Z,-5.19
2018-03-01T02:47:14.161Z,-5.05
2018-03-01T02:48:14.194Z,-5.14
2018-03-01T02:49:14.233Z,-5.14
2018-03-01T02:50:14.264Z,-5.07
2018-03-01T02:51:14.314Z,-5.12
2018-03-01T02:52:14.340Z,-5.19
2018-03-01T02:53:14.368Z,-5.19
2018-03-01T02:54:14.441Z,-5.14
2018-03-01T02:55:14.440Z,-5.08
2018-03-01T02:56:14.493Z,-5.31
2018-03-01T02:57:14.509Z,-5.20
2018-03-01T02:58:14.545Z,-5.22
2018-03-01T02:59:14.581Z,-5.33
2018-03-01T03:00:14.615Z,-5.19
2018-03-01T03:01:14.670Z,-5.26
2018-03-01T03:02:14.686Z,-5.17
2018-03-01T03:03:14.722Z,-5.17
2018-03-01T03:04:14.756Z,-5.23
2018-03-01T03:05:14.793Z,-5.17
2018-03-01T03:06:14.841Z,-5.17
2018-03-01T03:07:14.858Z,-5.20
2018-03-01T03:08:14.902Z,-5.30
2018-03-01T03:09:14.945Z,-5.17
2018-03-01T03:10:14.963Z,-5.23
2018-03-01T03:11:14.999Z,-5.33
2018-03-01T03:12:15.056Z,-5.31
2018-03-01T03:13:15.069Z,-5.22
2018-03-01T03:14:15.105Z,-5.12
2018-03-01T03:15:15.138Z,-5.17
2018-03-01T03:16:15.175Z,-5.25
2018-03-01T03:17:15.229Z,-5.07
2018-03-01T03:18:15.247Z,-5.17
2018-03-01T03:19:15.279Z,-5.07
2018-03-01T03:20:15.315Z,-5.17
2018-03-01T03:21:15.350Z,-5.27
2018-03-01T03:22:15.401Z,-5.30
2018-03-01T03:23:15.420Z,-5.11
2018-03-01T03:24:15.459Z,-5.19
2018-03-01T03:25:15.491Z,-5.16
2018-03-01T03:26:15.523Z,-5.12
2018-03-01T03:27:15.575Z,-5.12
2018-03-01T03:28:15.615Z,-5.07
2018-03-01T03:29:15.631Z,-5.05
2018-03-01T03:30:15.675Z,-5.14
2018-03-01T03:31:15.702Z,-5.12
2018-03-01T03:32:15.733Z,-5.17
2018-03-01T03:33:15.789Z,-5.07
2018-03-01T03:34:15.802Z,-5.19
2018-03-01T03:35:15.839Z,-5.19
2018-03-01T03:36:15.876Z,-5.16
2018-03-01T03:37:15.909Z,-5.16
2018-03-01T03:38:15.959Z,-5.31
2018-03-01T03:39:15.993Z,-5.20
2018-03-01T03:40:16.017Z,-5.11
2018-03-01T03:41:16.050Z,-5.17
2018-03-01T03:42:16.082Z,-5.11
2018-03-01T03:43:16.120Z,-5.14
2018-03-01T03:44:16.174Z,-5.11
2018-03-01T03:45:16.188Z,-5.17
2018-03-01T03:46:16.225Z,-5.16
2018-03-01T03:47:16.262Z,-5.19
2018-03-01T03:48:16.296Z,-5.17
2018-03-01T03:49:16.346Z,-5.22
2018-03-01T03:50:16.363Z,-5.17
2018-03-01T03:51:16.403Z,-5.14
2018-03-01T03:52:16.434Z,-5.11
2018-03-01T03:53:16.469Z,-5.07
2018-03-01T03:54:16.526Z,-5.19
2018-03-01T03:55:16.541Z,-5.25
2018-03-01T03:56:16.575Z,-5.22
2018-03-01T03:57:16.610Z,-5.16
2018-03-01T03:58:16.650Z,-5.19
2018-03-01T03:59:16.696Z,-5.07
2018-03-01T04:00:16.718Z,-5.00
2018-03-01T04:01:16.752Z,-5.00
2018-03-01T04:02:16.788Z,-5.08
2018-03-01T04:03:16.817Z,-5.04
2018-03-01T04:04:16.869Z,-4.97
2018-03-01T04:05:16.893Z,-4.98
2018-03-01T04:06:16.924Z,-5.01
2018-03-01T04:07:16.989Z,-5.05
2018-03-01T04:08:16.992Z,-5.01
2018-03-01T04:09:17.028Z,-4.98
2018-03-01T04:10:17.063Z,-5.04
2018-03-01T04:11:17.099Z,-5.01
2018-03-01T04:12:17.150Z,-5.11
2018-03-01T04:13:17.176Z,-5.12
2018-03-01T04:14:17.203Z,-5.26
2018-03-01T04:15:17.242Z,-5.26
2018-03-01T04:16:17.274Z,-5.26
2018-03-01T04:17:17.338Z,-5.17
2018-03-01T04:18:17.349Z,-5.12
2018-03-01T04:19:17.378Z,-5.17
2018-03-01T04:20:17.420Z,-5.16
2018-03-01T04:21:17.451Z,-5.19
2018-03-01T04:22:17.506Z,-5.25
2018-03-01T04:23:17.537Z,-5.22
2018-03-01T04:24:17.554Z,-5.19
2018-03-01T04:25:17.588Z,-5.19
2018-03-01T04:26:17.626Z,-5.16
2018-03-01T04:27:17.674Z,-5.16
2018-03-01T04:28:17.713Z,-5.19
2018-03-01T04:29:17.730Z,-5.08
2018-03-01T04:30:17.765Z,-5.16
2018-03-01T04:31:17.800Z,-5.14
2018-03-01T04:32:18.361Z,-5.05
2018-03-01T04:33:17.894Z,-5.08
2018-03-01T04:34:17.904Z,-5.17
2018-03-01T04:35:17.939Z,-5.22
2018-03-01T04:36:17.976Z,-5.07
2018-03-01T04:37:18.008Z,-5.12
2018-03-01T04:38:18.065Z,-5.11
2018-03-01T04:39:18.080Z,-5.07
2018-03-01T04:40:18.116Z,-5.19
2018-03-01T04:41:18.156Z,-5.11
2018-03-01T04:42:18.187Z,-5.08
2018-03-01T04:43:18.236Z,-5.08
2018-03-01T04:44:18.272Z,-5.00
2018-03-01T04:45:18.296Z,-5.03
2018-03-01T04:46:18.334Z,-5.07
2018-03-01T04:47:18.362Z,-5.07
2018-03-01T04:48:18.418Z,-5.04
2018-03-01T04:49:18.433Z,-5.19
2018-03-01T04:50:18.493Z,-5.08
2018-03-01T04:51:18.507Z,-5.05
2018-03-01T04:52:18.541Z,-5.12
2018-03-01T04:53:18.578Z,-5.11
2018-03-01T04:54:18.624Z,-5.03
2018-03-01T04:55:18.644Z,-5.07
2018-03-01T04:56:18.677Z,-5.07
2018-03-01T04:57:18.719Z,-5.08
2018-03-01T04:58:18.749Z,-5.11
2018-03-01T04:59:18.803Z,-5.17
2018-03-01T05:00:18.823Z,-5.08
2018-03-01T05:01:18.858Z,-5.12
2018-03-01T05:02:18.892Z,-5.14
2018-03-01T05:03:18.926Z,-5.07
2018-03-01T05:04:18.975Z,-5.08
2018-03-01T05:05:18.998Z,-5.17
2018-03-01T05:06:19.030Z,-5.08
2018-03-01T05:07:19.084Z,-5.12
2018-03-01T05:08:19.105Z,-5.20
2018-03-01T05:09:19.137Z,-5.22
2018-03-01T05:10:19.186Z,-5.19
2018-03-01T05:11:19.207Z,-5.04
2018-03-01T05:12:19.262Z,-5.01
2018-03-01T05:13:19.279Z,-5.07
2018-03-01T05:14:19.312Z,-5.11
2018-03-01T05:15:19.348Z,-5.03
2018-03-01T05:16:19.399Z,-5.16
2018-03-01T05:17:19.418Z,-5.01
2018-03-01T05:18:19.456Z,-5.08
2018-03-01T05:19:19.492Z,-5.05
2018-03-01T05:20:19.523Z,-5.07
2018-03-01T05:21:19.574Z,-5.05
2018-03-01T05:22:19.615Z,-5.05
2018-03-01T05:23:19.627Z,-5.12
2018-03-01T05:24:19.663Z,-5.17
2018-03-01T05:25:19.707Z,-5.20
2018-03-01T05:26:19.733Z,-5.22
2018-03-01T05:27:19.786Z,-5.17
2018-03-01T05:28:19.803Z,-5.11
2018-03-01T05:29:19.842Z,-5.11
2018-03-01T05:30:19.878Z,-4.97
2018-03-01T05:31:19.926Z,-4.93
2018-03-01T05:32:19.982Z,-4.97
2018-03-01T05:33:19.980Z,-4.94
2018-03-01T05:34:20.009Z,-4.98
2018-03-01T05:35:20.049Z,-5.12
2018-03-01T05:36:20.086Z,-5.07
2018-03-01T05:37:20.140Z,-4.94
2018-03-01T05:38:20.156Z,-4.97
2018-03-01T05:39:20.191Z,-4.89
2018-03-01T05:40:20.233Z,-4.80
2018-03-01T05:41:20.264Z,-4.82
2018-03-01T05:42:20.308Z,-4.97
2018-03-01T05:43:20.333Z,-5.01
2018-03-01T05:44:20.391Z,-4.85
2018-03-01T05:45:20.406Z,-4.93
2018-03-01T05:46:20.440Z,-4.98
2018-03-01T05:47:20.471Z,-4.97
2018-03-01T05:48:20.509Z,-4.95
2018-03-01T05:49:20.559Z,-5.05
2018-03-01T05:50:20.583Z,-4.97
2018-03-01T05:51:20.612Z,-5.11
2018-03-01T05:52:20.650Z,-4.98
2018-03-01T05:53:20.686Z,-5.07
2018-03-01T05:54:21.652Z,-5.05
2018-03-01T05:55:20.754Z,-4.97
2018-03-01T05:56:20.790Z,-5.05
2018-03-01T05:57:20.825Z,-5.12
2018-03-01T05:58:20.859Z,-5.14
2018-03-01T05:59:20.913Z,-4.98
2018-03-01T06:00:21.648Z,-5.01
2018-03-01T06:01:20.969Z,-5.04
2018-03-01T06:02:21.020Z,-5.08
2018-03-01T06:03:21.037Z,-5.12
2018-03-01T06:04:21.094Z,-5.14
2018-03-01T06:05:21.106Z,-5.22
2018-03-01T06:06:21.142Z,-5.08
2018-03-01T06:07:21.177Z,-5.14
2018-03-01T06:08:21.214Z,-5.14
2018-03-01T06:09:21.263Z,-5.11
2018-03-01T06:10:21.301Z,-5.14
2018-03-01T06:11:21.320Z,-5.22
2018-03-01T06:12:21.351Z,-5.20
2018-03-01T06:13:21.389Z,-5.19
2018-03-01T06:14:21.424Z,-5.23
2018-03-01T06:15:21.476Z,-5.20
2018-03-01T06:16:21.495Z,-5.16
2018-03-01T06:17:21.531Z,-5.26
2018-03-01T06:18:21.564Z,-5.26
2018-03-01T06:19:21.604Z,-5.20
2018-03-01T06:20:21.657Z,-5.20
2018-03-01T06:21:21.671Z,-5.17
2018-03-01T06:22:21.704Z,-5.26
2018-03-01T06:23:21.739Z,-5.20
2018-03-01T06:24:21.792Z,-5.17
2018-03-01T06:25:21.811Z,-5.25
2018-03-01T06:26:21.861Z,-5.34
2018-03-01T06:27:21.881Z,-5.40
2018-03-01T06:28:21.917Z,-5.33
2018-03-01T06:29:21.956Z,-5.35
2018-03-01T06:30:21.989Z,-5.35
2018-03-01T06:31:22.038Z,-5.35
2018-03-01T06:32:22.066Z,-5.43
2018-03-01T06:33:22.101Z,-5.43
2018-03-01T06:34:22.136Z,-5.49
2018-03-01T06:35:22.164Z,-5.47
2018-03-01T06:36:22.226Z,-5.47
2018-03-01T06:37:22.230Z,-5.41
2018-03-01T06:38:22.286Z,-5.45
2018-03-01T06:39:22.302Z,-5.45
2018-03-01T06:40:22.336Z,-5.47
2018-03-01T06:41:22.374Z,-5.47
2018-03-01T06:42:22.405Z,-5.44
2018-03-01T06:43:22.456Z,-5.37
2018-03-01T06:44:22.475Z,-5.34
2018-03-01T06:45:22.510Z,-5.38
2018-03-01T06:46:22.548Z,-5.30
2018-03-01T06:47:22.584Z,-5.30
2018-03-01T06:48:22.633Z,-5.27
2018-03-01T06:49:22.651Z,-5.41
2018-03-01T06:50:22.685Z,-5.38
2018-03-01T06:51:22.720Z,-5.34
2018-03-01T06:52:22.761Z,-5.38
2018-03-01T06:53:22.807Z,-5.35
2018-03-01T06:54:22.831Z,-5.44
2018-03-01T06:55:22.860Z,-5.27
2018-03-01T06:56:22.896Z,-5.25
2018-03-01T06:57:22.932Z,-5.27
2018-03-01T06:58:22.980Z,-5.27
2018-03-01T06:59:23.000Z,-5.19
2018-03-01T07:00:23.034Z,-5.17
2018-03-01T07:01:23.070Z,-5.30
2018-03-01T07:02:23.122Z,-5.12
2018-03-01T07:03:23.139Z,-5.17
2018-03-01T07:04:23.177Z,-5.16
2018-03-01T07:05:23.211Z,-5.14
2018-03-01T07:06:23.245Z,-5.17
2018-03-01T07:07:24.137Z,-5.11
2018-03-01T07:08:23.315Z,-5.07
2018-03-01T07:09:23.354Z,-5.00
2018-03-01T07:10:23.388Z,-5.12
2018-03-01T07:11:23.420Z,-5.08
2018-03-01T07:12:23.482Z,-5.05
2018-03-01T07:13:23.492Z,-5.08
2018-03-01T07:14:23.530Z,-4.98
2018-03-01T07:15:23.561Z,-4.98
2018-03-01T07:16:23.610Z,-4.94
2018-03-01T07:17:23.649Z,-5.00
2018-03-01T07:18:23.668Z,-5.04
2018-03-01T07:19:23.720Z,-5.17
2018-03-01T07:20:23.751Z,-5.30
2018-03-01T07:21:23.777Z,-5.12
2018-03-01T07:22:23.810Z,-5.08
2018-03-01T07:23:23.854Z,-5.11
2018-03-01T07:24:23.898Z,-5.05
2018-03-01T07:25:23.918Z,-5.05
2018-03-01T07:26:23.950Z,-4.98
2018-03-01T07:27:23.993Z,-5.05
2018-03-01T07:28:24.021Z,-5.00
2018-03-01T07:29:24.085Z,-4.94
2018-03-01T07:30:24.092Z,-4.94
2018-03-01T07:31:24.127Z,-4.97
2018-03-01T07:32:24.163Z,-4.98
2018-03-01T07:33:24.201Z,-4.82
2018-03-01T07:34:24.263Z,-4.80
2018-03-01T07:35:24.271Z,-4.77
2018-03-01T07:36:24.304Z,-4.83
2018-03-01T07:37:24.342Z,-4.82
2018-03-01T07:38:24.381Z,-4.83
2018-03-01T07:39:24.429Z,-4.86
2018-03-01T07:40:24.449Z,-4.77
2018-03-01T07:41:24.482Z,-4.76
2018-03-01T07:42:24.521Z,-4.66
2018-03-01T07:43:24.556Z,-4.68
2018-03-01T07:44:24.621Z,-4.75
2018-03-01T07:45:24.627Z,-4.73
2018-03-01T07:46:24.681Z,-4.71
2018-03-01T07:47:24.698Z,-4.71
2018-03-01T07:48:24.733Z,-4.69
2018-03-01T07:49:24.769Z,-4.58
2018-03-01T07:50:24.804Z,-4.54
2018-03-01T07:51:24.864Z,-4.47
2018-03-01T07:52:24.876Z,-4.44
2018-03-01T07:53:24.913Z,-4.40
2018-03-01T07:54:24.948Z,-4.37
2018-03-01T07:55:24.988Z,-4.41
2018-03-01T07:56:25.037Z,-4.30
2018-03-01T07:57:25.057Z,-4.26
2018-03-01T07:58:25.094Z,-4.19
2018-03-01T07:59:25.128Z,-4.19
2018-03-01T08:00:25.166Z,-4.11
2018-03-01T08:01:25.222Z,-4.02
2018-03-01T08:02:25.238Z,-4.02
2018-03-01T08:03:25.279Z,-3.94
2018-03-01T08:04:25.311Z,-3.99
2018-03-01T08:05:25.347Z,-3.90
2018-03-01T08:06:25.408Z,-3.91
2018-03-01T08:07:25.423Z,-3.78
2018-03-01T08:08:25.462Z,-3.93
2018-03-01T08:09:25.499Z,-3.96
2018-03-01T08:10:25.534Z,-4.07
2018-03-01T08:11:25.589Z,-3.96
2018-03-01T08:12:25.605Z,-4.01
2018-03-01T08:13:25.642Z,-4.04
2018-03-01T08:14:25.680Z,-4.01
2018-03-01T08:15:25.732Z,-4.09
2018-03-01T08:16:25.755Z,-3.98
2018-03-01T08:17:25.788Z,-3.89
2018-03-01T08:18:25.828Z,-3.91
2018-03-01T08:19:25.896Z,-3.94
2018-03-01T08:20:25.915Z,-3.89
2018-03-01T08:21:25.935Z,-3.84
2018-03-01T08:22:25.990Z,-3.72
2018-03-01T08:23:26.011Z,-3.71
2018-03-01T08:24:26.045Z,-3.80
2018-03-01T08:25:26.120Z,-3.78
2018-03-01T08:26:26.120Z,-3.75
2018-03-01T08:27:26.172Z,-3.60
2018-03-01T08:28:26.194Z,-3.57
2018-03-01T08:29:26.232Z,-3.60
2018-03-01T08:30:26.270Z,-3.62
2018-03-01T08:31:26.307Z,-3.50
2018-03-01T08:32:26.367Z,-3.46
2018-03-01T08:33:26.380Z,-3.43
2018-03-01T08:34:26.427Z,-3.38
2018-03-01T08:35:26.456Z,-3.43
2018-03-01T08:36:26.492Z,-3.44
2018-03-01T08:37:26.569Z,-3.35
2018-03-01T08:38:26.567Z,-3.43
2018-03-01T08:39:26.604Z,-3.51
2018-03-01T08:40:26.643Z,-3.65
2018-03-01T08:41:26.678Z,-3.57
2018-03-01T08:42:26.731Z,-3.61
2018-03-01T08:43:26.771Z,-3.53
2018-03-01T08:44:26.791Z,-3.46
2018-03-01T08:45:26.833Z,-3.38
2018-03-01T08:46:26.871Z,-3.29
2018-03-01T08:47:26.903Z,-3.26
2018-03-01T08:48:26.957Z,-3.17
2018-03-01T08:49:26.978Z,-3.29
2018-03-01T08:50:27.016Z,-3.23
2018-03-01T08:51:27.056Z,-3.22
2018-03-01T08:52:27.094Z,-3.10
2018-03-01T08:53:27.143Z,-3.02
2018-03-01T08:54:27.180Z,-3.08
2018-03-01T08:55:27.214Z,-3.07
2018-03-01T08:56:27.240Z,-2.85
2018-03-01T08:57:27.282Z,-2.99
2018-03-01T08:58:27.315Z,-2.94
2018-03-01T08:59:27.372Z,-3.08
2018-03-01T09:00:27.405Z,-3.13
2018-03-01T09:01:27.439Z,-3.02
2018-03-01T09:02:27.465Z,-3.14
2018-03-01T09:03:27.505Z,-3.07
2018-03-01T09:04:27.560Z,-3.14
2018-03-01T09:05:27.587Z,-3.02
2018-03-01T09:06:27.615Z,-3.14
2018-03-01T09:07:27.654Z,-3.04
2018-03-01T09:08:27.692Z,-2.93
2018-03-01T09:09:27.746Z,-2.90
2018-03-01T09:10:27.767Z,-2.89
2018-03-01T09:11:27.813Z,-2.94
2018-03-01T09:12:27.844Z,-2.87
2018-03-01T09:13:27.881Z,-2.89
2018-03-01T09:14:27.935Z,-2.81
2018-03-01T09:15:27.956Z,-2.86
2018-03-01T09:16:28.010Z,-2.93
2018-03-01T09:17:28.034Z,-2.96
2018-03-01T09:18:28.078Z,-2.92
2018-03-01T09:19:28.154Z,-2.94
2018-03-01T09:20:28.161Z,-2.90
2018-03-01T09:21:28.183Z,-2.96
2018-03-01T09:22:28.239Z,-2.94
2018-03-01T09:23:28.260Z,-3.04
2018-03-01T09:24:28.296Z,-2.99
2018-03-01T09:25:28.334Z,-3.04
2018-03-01T09:26:28.379Z,-3.11
2018-03-01T09:27:28.424Z,-3.10
2018-03-01T09:28:28.446Z,-3.08
2018-03-01T09:29:28.487Z,-2.96
2018-03-01T09:30:28.536Z,-2.89
2018-03-01T09:31:28.601Z,-2.89
2018-03-01T09:32:28.604Z,-2.87
2018-03-01T09:33:28.638Z,-2.79
2018-03-01T09:34:28.673Z,-2.76
2018-03-01T09:35:28.713Z,-2.60
2018-03-01T09:36:28.782Z,-2.71
2018-03-01T09:37:28.795Z,-2.69
2018-03-01T09:38:28.825Z,-2.81
2018-03-01T09:39:28.863Z,-2.79
2018-03-01T09:40:28.902Z,-2.90
2018-03-01T09:41:29.141Z,-2.75
2018-03-01T09:42:28.976Z,-2.71
2018-03-01T09:43:29.014Z,-2.60
2018-03-01T09:44:29.051Z,-2.56
2018-03-01T09:45:29.089Z,-2.50
2018-03-01T09:46:29.126Z,-2.54
2018-03-01T09:47:29.197Z,-2.45
2018-03-01T09:48:29.203Z,-2.56
2018-03-01T09:49:29.241Z,-2.42
2018-03-01T09:50:29.277Z,-2.60
2018-03-01T09:51:29.316Z,-2.48
2018-03-01T09:52:29.373Z,-2.51
2018-03-01T09:53:29.392Z,-2.56
2018-03-01T09:54:29.429Z,-2.57
2018-03-01T09:55:29.473Z,-2.54
2018-03-01T09:56:29.506Z,-2.40
2018-03-01T09:57:29.561Z,-2.54
2018-03-01T09:58:29.581Z,-2.47
2018-03-01T09:59:29.616Z,-2.35
2018-03-01T10:00:29.666Z,-2.35
2018-03-01T10:01:29.703Z,-2.32
2018-03-01T10:02:29.748Z,-2.28
2018-03-01T10:03:29.773Z,-2.23
2018-03-01T10:04:29.810Z,-2.21
2018-03-01T10:05:29.868Z,-2.13
2018-03-01T10:06:29.885Z,-2.00
2018-03-01T10:07:29.926Z,-1.95
2018-03-01T10:08:29.962Z,-1.90
2018-03-01T10:09:30.003Z,-1.82
2018-03-01T10:10:30.058Z,-1.74
2018-03-01T10:11:30.093Z,-1.66
2018-03-01T10:12:30.118Z,-1.57
2018-03-01T10:13:30.176Z,-1.53
2018-03-01T10:14:30.192Z,-1.38
2018-03-01T10:15:30.235Z,-1.48
2018-03-01T10:16:30.288Z,-1.53
2018-03-01T10:17:30.309Z,-1.49
2018-03-01T10:18:30.365Z,-1.60
2018-03-01T10:19:30.387Z,-1.54
2018-03-01T10:20:30.428Z,-1.33
2018-03-01T10:21:41.676Z,-1.25
2018-03-01T10:22:30.502Z,-1.27
2018-03-01T10:23:30.547Z,-1.28
2018-03-01T10:24:30.586Z,-1.13
2018-03-01T10:25:30.623Z,-1.07
2018-03-01T10:26:30.658Z,-1.17
2018-03-01T10:27:30.714Z,-1.24
2018-03-01T10:28:30.737Z,-1.28
2018-03-01T10:29:30.781Z,-1.27
2018-03-01T10:30:30.834Z,-1.05
2018-03-01T10:31:30.854Z,-0.83
2018-03-01T10:32:30.911Z,-0.63
2018-03-01T10:33:30.936Z,-0.51
2018-03-01T10:34:30.973Z,-0.42
2018-03-01T10:35:31.038Z,-0.15
2018-03-01T10:36:31.053Z,0.00
2018-03-01T10:37:31.100Z,0.21
2018-03-01T10:38:31.131Z,0.21
2018-03-01T10:39:31.193Z,0.15
2018-03-01T10:40:31.216Z,0.15
2018-03-01T10:41:31.274Z,0.23
2018-03-01T10:42:31.295Z,0.36
2018-03-01T10:43:31.334Z,0.30
2018-03-01T10:44:31.389Z,0.30
2018-03-01T10:45:31.416Z,0.25
2018-03-01T10:46:31.457Z,0.34
2018-03-01T10:47:31.507Z,0.21
2018-03-01T10:48:31.538Z,0.24
2018-03-01T10:49:31.596Z,0.15
2018-03-01T10:50:31.622Z,0.06
2018-03-01T10:51:31.660Z,0.18
2018-03-01T10:52:31.718Z,0.16
2018-03-01T10:53:31.744Z,0.12
2018-03-01T10:54:31.801Z,-0.01
2018-03-01T10:55:31.826Z,-0.01
2018-03-01T10:56:31.865Z,-0.08
2018-03-01T10:57:31.910Z,-0.05
2018-03-01T10:58:31.949Z,-0.05
2018-03-01T10:59:32.072Z,-0.01
2018-03-01T11:00:32.029Z,-0.04
2018-03-01T11:01:32.074Z,-0.08
2018-03-01T11:02:32.110Z,0.00
2018-03-01T11:03:32.153Z,-0.05
2018-03-01T11:04:32.216Z,-0.01
2018-03-01T11:05:32.238Z,-0.09
2018-03-01T11:06:32.294Z,-0.11
2018-03-01T11:07:32.321Z,-0.05
2018-03-01T11:08:32.358Z,-0.12
2018-03-01T11:09:32.414Z,-0.23
2018-03-01T11:10:32.444Z,-0.23
2018-03-01T11:11:32.480Z,-0.22
2018-03-01T11:12:32.519Z,-0.19
2018-03-01T11:13:32.567Z,-0.15
2018-03-01T11:14:32.617Z,-0.19
2018-03-01T11:15:32.642Z,-0.19
2018-03-01T11:16:32.680Z,-0.33
2018-03-01T11:17:32.720Z,-0.36
2018-03-01T11:18:32.761Z,-0.39
2018-03-01T11:19:32.818Z,-0.44
2018-03-01T11:20:32.842Z,-0.34
2018-03-01T11:21:32.882Z,-0.36
2018-03-01T11:22:32.922Z,-0.31
2018-03-01T11:23:32.962Z,-0.33
2018-03-01T11:24:33.019Z,-0.30
2018-03-01T11:25:33.061Z,-0.31
2018-03-01T11:26:33.093Z,-0.34
2018-03-01T11:27:33.123Z,-0.33
2018-03-01T11:28:33.166Z,-0.34
2018-03-01T11:29:33.226Z,-0.33
2018-03-01T11:30:33.244Z,-0.36
2018-03-01T11:31:33.299Z,-0.50
2018-03-01T11:32:33.326Z,-0.51
2018-03-01T11:33:33.366Z,-0.47
2018-03-01T11:34:33.405Z,-0.41
2018-03-01T11:35:33.444Z,-0.42
2018-03-01T11:36:33.502Z,-0.31
2018-03-01T11:37:33.526Z,-0.18
2018-03-01T11:38:33.563Z,-0.29
2018-03-01T11:39:33.604Z,-0.06
2018-03-01T11:40:33.668Z,0.03
2018-03-01T11:41:33.744Z,0.06
2018-03-01T11:42:33.725Z,0.05
2018-03-01T11:43:33.764Z,0.07
2018-03-01T11:44:33.817Z,-0.11
2018-03-01T11:45:33.868Z,-0.18
2018-03-01T11:46:33.893Z,-0.33
2018-03-01T11:47:33.932Z,-0.44
2018-03-01T11:48:33.998Z,-0.48
2018-03-01T11:49:34.006Z,-0.51
2018-03-01T11:50:34.049Z,-0.52
2018-03-01T11:51:34.088Z,-0.51
2018-03-01T11:52:34.144Z,-0.52
2018-03-01T11:53:34.182Z,-0.68
2018-03-01T11:54:34.207Z,-0.75
2018-03-01T11:55:34.244Z,-0.70
2018-03-01T11:56:34.287Z,-0.69
2018-03-01T11:57:34.324Z,-0.70
2018-03-01T11:58:34.381Z,-0.69
2018-03-01T11:59:34.404Z,-0.60
2018-03-01T12:00:34.445Z,-0.59
2018-03-01T12:01:34.484Z,-0.55
2018-03-01T12:02:34.522Z,-0.59
2018-03-01T12:03:34.581Z,-0.59
2018-03-01T12:04:34.603Z,-0.75
2018-03-01T12:05:34.645Z,-0.69
2018-03-01T12:06:34.682Z,-0.66
2018-03-01T12:07:34.723Z,-0.59
2018-03-01T12:08:34.778Z,-0.63
2018-03-01T12:09:34.826Z,-0.44
2018-03-01T12:10:34.842Z,-0.50
2018-03-01T12:11:34.880Z,-0.62
2018-03-01T12:12:34.918Z,-0.54
2018-03-01T12:13:34.959Z,-0.54
2018-03-01T12:14:35.016Z,-0.41
2018-03-01T12:15:35.044Z,-0.34
2018-03-01T12:16:35.078Z,-0.31
2018-03-01T12:17:35.119Z,-0.23
2018-03-01T12:18:35.158Z,-0.04
2018-03-01T12:19:35.216Z,0.05
2018-03-01T12:20:35.238Z,0.20
2018-03-01T12:21:35.281Z,0.45
2018-03-01T12:22:35.316Z,0.58
2018-03-01T12:23:35.357Z,0.96
2018-03-01T12:24:35.415Z,0.94
2018-03-01T12:25:35.441Z,1.07
2018-03-01T12:26:35.481Z,1.21
2018-03-01T12:27:35.522Z,1.40
2018-03-01T12:28:35.562Z,1.69
2018-03-01T12:29:35.620Z,1.78
2018-03-01T12:30:35.646Z,1.85
2018-03-01T12:31:35.688Z,1.68
2018-03-01T12:32:35.728Z,1.64
2018-03-01T12:33:35.770Z,1.85
2018-03-01T12:34:35.829Z,1.94
2018-03-01T12:35:35.856Z,1.80
2018-03-01T12:36:35.895Z,1.80
2018-03-01T12:37:35.944Z,1.69
2018-03-01T12:38:35.990Z,1.71
2018-03-01T12:39:36.042Z,1.58
2018-03-01T12:40:36.630Z,1.40
2018-03-01T12:41:36.633Z,1.18
2018-03-01T12:42:36.155Z,1.07
2018-03-01T12:43:36.196Z,0.86
2018-03-01T12:44:36.239Z,0.62
2018-03-01T12:45:36.301Z,0.57
2018-03-01T12:46:36.326Z,0.57
2018-03-01T12:47:36.367Z,0.62
2018-03-01T12:48:36.411Z,0.68
2018-03-01T12:49:36.458Z,0.75
2018-03-01T12:50:36.514Z,0.85
2018-03-01T12:51:36.540Z,0.89
2018-03-01T12:52:36.584Z,0.88
2018-03-01T12:53:36.622Z,0.65
2018-03-01T12:54:36.667Z,0.38